Anthony, New Mexico
Current Conditions -  °F | °C
As of 7:58 PM on Thursday 18 Dec 2014 (Local Time) from KBIF Reporting Station
Overcast Overcast  
Wind Chill: 46°   Ceiling: 6500
Heat Index: 46°   Visibility: 10mi
Dew Point: 41°   Wind: 3mph
Humidity: 84%   Direction: 160°SSE
Pressure: 30.13"   Gusts: NA
Location:  32°N, 106.6°W
Report Text: KBIF 190258Z 16003KT 10SM FEW045 BKN065 OVC080 08/05 A3013 RMK AO2A SLP189 60003 T00750049 52023
Loading
Personal Weather Stations






























Interactive Weather Map New forecast layout! Learn more

10-Day Weather Forecast

Advertisements
Track Severe Weather on mobile